sensor_id;sensor_type;location;lat;lon;timestamp;pressure;altitude;pressure_sealevel;temperature;humidity
43436;BME280;36399;51.444;-2.018;2023-11-19T00:00:51;100050.22;;;10.52;100.00
43436;BME280;36399;51.444;-2.018;2023-11-19T00:03:17;100056.34;;;10.53;100.00
43436;BME280;36399;51.444;-2.018;2023-11-19T00:05:43;100057.25;;;10.56;100.00
43436;BME280;36399;51.444;-2.018;2023-11-19T00:08:10;100052.03;;;10.59;100.00
43436;BME280;36399;51.444;-2.018;2023-11-19T00:10:36;100061.66;;;10.59;100.00
43436;BME280;36399;51.444;-2.018;2023-11-19T00:13:02;100054.69;;;10.64;100.00
43436;BME280;36399;51.444;-2.018;2023-11-19T00:15:30;100048.53;;;10.63;100.00
43436;BME280;36399;51.444;-2.018;2023-11-19T00:17:57;100052.06;;;10.68;100.00
43436;BME280;36399;51.444;-2.018;2023-11-19T00:20:23;100053.81;;;10.69;100.00
43436;BME280;36399;51.444;-2.018;2023-11-19T00:22:49;100051.22;;;10.71;100.00
43436;BME280;36399;51.444;-2.018;2023-11-19T00:25:19;100025.84;;;10.71;100.00
43436;BME280;36399;51.444;-2.018;2023-11-19T00:27:45;100044.19;;;10.68;100.00
43436;BME280;36399;51.444;-2.018;2023-11-19T00:30:11;100038.94;;;10.64;100.00
43436;BME280;36399;51.444;-2.018;2023-11-19T00:32:37;100029.22;;;10.52;100.00
43436;BME280;36399;51.444;-2.018;2023-11-19T00:35:08;100020.47;;;10.47;100.00
43436;BME280;36399;51.444;-2.018;2023-11-19T00:37:36;100021.34;;;10.48;100.00
43436;BME280;36399;51.444;-2.018;2023-11-19T00:40:02;100020.41;;;10.41;100.00
43436;BME280;36399;51.444;-2.018;2023-11-19T00:42:31;100025.63;;;10.38;100.00
43436;BME280;36399;51.444;-2.018;2023-11-19T00:44:57;100022.09;;;10.36;100.00
43436;BME280;36399;51.444;-2.018;2023-11-19T00:47:23;100020.44;;;10.44;100.00
43436;BME280;36399;51.444;-2.018;2023-11-19T00:49:49;100023.09;;;10.50;100.00
43436;BME280;36399;51.444;-2.018;2023-11-19T00:52:16;100023.09;;;10.50;100.00
43436;BME280;36399;51.444;-2.018;2023-11-19T00:54:43;100021.34;;;10.48;100.00
43436;BME280;36399;51.444;-2.018;2023-11-19T00:57:09;100023.94;;;10.43;100.00
43436;BME280;36399;51.444;-2.018;2023-11-19T00:59:35;100024.81;;;10.43;100.00
43436;BME280;36399;51.444;-2.018;2023-11-19T01:02:01;100011.72;;;10.51;100.00
43436;BME280;36399;51.444;-2.018;2023-11-19T01:04:29;100015.22;;;10.50;100.00
43436;BME280;36399;51.444;-2.018;2023-11-19T01:06:55;100023.94;;;10.46;100.00
43436;BME280;36399;51.444;-2.018;2023-11-19T01:09:21;100016.00;;;10.40;100.00
43436;BME280;36399;51.444;-2.018;2023-11-19T01:11:47;100017.81;;;10.41;100.00
43436;BME280;36399;51.444;-2.018;2023-11-19T01:14:13;100009.84;;;10.35;100.00
43436;BME280;36399;51.444;-2.018;2023-11-19T01:16:39;100013.38;;;10.37;100.00
43436;BME280;36399;51.444;-2.018;2023-11-19T01:19:05;100019.56;;;10.43;100.00
43436;BME280;36399;51.444;-2.018;2023-11-19T01:21:31;100007.34;;;10.47;100.00
43436;BME280;36399;51.444;-2.018;2023-11-19T01:23:57;100010.81;;;10.45;100.00
43436;BME280;36399;51.444;-2.018;2023-11-19T01:26:25;100001.19;;;10.42;100.00
43436;BME280;36399;51.444;-2.018;2023-11-19T01:28:51;100008.13;;;10.40;100.00
43436;BME280;36399;51.444;-2.018;2023-11-19T01:31:18;99994.13;;;10.35;100.00
43436;BME280;36399;51.444;-2.018;2023-11-19T01:33:44;100009.88;;;10.38;100.00
43436;BME280;36399;51.444;-2.018;2023-11-19T01:36:13;100001.19;;;10.43;100.00
43436;BME280;36399;51.444;-2.018;2023-11-19T01:38:39;99991.50;;;10.39;100.00
43436;BME280;36399;51.444;-2.018;2023-11-19T01:41:05;100005.47;;;10.34;100.00
43436;BME280;36399;51.444;-2.018;2023-11-19T01:43:39;100009.81;;;10.29;100.00
43436;BME280;36399;51.444;-2.018;2023-11-19T01:46:07;100015.94;;;10.26;100.00
43436;BME280;36399;51.444;-2.018;2023-11-19T01:48:37;100009.72;;;10.20;100.00
43436;BME280;36399;51.444;-2.018;2023-11-19T01:51:06;99992.22;;;10.19;100.00
43436;BME280;36399;51.444;-2.018;2023-11-19T01:53:34;100003.66;;;10.21;100.00
43436;BME280;36399;51.444;-2.018;2023-11-19T01:56:03;99987.94;;;10.25;100.00
43436;BME280;36399;51.444;-2.018;2023-11-19T01:58:30;99996.69;;;10.24;100.00
43436;BME280;36399;51.444;-2.018;2023-11-19T02:00:56;99989.56;;;10.11;100.00
43436;BME280;36399;51.444;-2.018;2023-11-19T02:03:23;99993.91;;;10.09;100.00
43436;BME280;36399;51.444;-2.018;2023-11-19T02:05:52;99986.94;;;10.09;100.00
43436;BME280;36399;51.444;-2.018;2023-11-19T02:08:19;99988.69;;;10.10;100.00
43436;BME280;36399;51.444;-2.018;2023-11-19T02:10:46;99981.69;;;10.12;100.00
43436;BME280;36399;51.444;-2.018;2023-11-19T02:13:11;99978.22;;;10.17;100.00
43436;BME280;36399;51.444;-2.018;2023-11-19T02:15:40;99977.38;;;10.18;100.00
43436;BME280;36399;51.444;-2.018;2023-11-19T02:18:24;99945.06;;;10.22;100.00
43436;BME280;36399;51.444;-2.018;2023-11-19T02:20:57;99953.84;;;10.27;100.00
43436;BME280;36399;51.444;-2.018;2023-11-19T02:23:24;99962.50;;;10.17;100.00
43436;BME280;36399;51.444;-2.018;2023-11-19T02:28:39;99973.84;;;10.16;100.00
43436;BME280;36399;51.444;-2.018;2023-11-19T02:31:05;99973.84;;;10.16;100.00
43436;BME280;36399;51.444;-2.018;2023-11-19T02:33:36;99969.47;;;10.15;100.00
43436;BME280;36399;51.444;-2.018;2023-11-19T02:36:04;99973.00;;;10.20;100.00
43436;BME280;36399;51.444;-2.018;2023-11-19T02:38:30;99983.50;;;10.20;100.00
43436;BME280;36399;51.444;-2.018;2023-11-19T02:40:57;99980.03;;;10.21;100.00
43436;BME280;36399;51.444;-2.018;2023-11-19T02:43:23;99982.72;;;10.28;100.00
43436;BME280;36399;51.444;-2.018;2023-11-19T02:45:48;99973.09;;;10.32;100.00
43436;BME280;36399;51.444;-2.018;2023-11-19T02:48:14;99962.63;;;10.35;100.00
43436;BME280;36399;51.444;-2.018;2023-11-19T02:50:42;99954.75;;;10.30;100.00
43436;BME280;36399;51.444;-2.018;2023-11-19T02:53:08;99958.19;;;10.22;100.00
43436;BME280;36399;51.444;-2.018;2023-11-19T02:55:34;99960.75;;;10.16;100.00
43436;BME280;36399;51.444;-2.018;2023-11-19T02:58:04;99960.72;;;10.12;100.00
43436;BME280;36399;51.444;-2.018;2023-11-19T03:00:46;99953.66;;;10.02;100.00
43436;BME280;36399;51.444;-2.018;2023-11-19T03:03:26;99954.59;;;10.10;100.00
43436;BME280;36399;51.444;-2.018;2023-11-19T03:06:04;99958.97;;;10.11;100.00
43436;BME280;36399;51.444;-2.018;2023-11-19T03:08:30;99943.25;;;10.15;100.00
43436;BME280;36399;51.444;-2.018;2023-11-19T03:10:56;99934.59;;;10.28;100.00
43436;BME280;36399;51.444;-2.018;2023-11-19T03:13:22;99925.00;;;10.30;100.00
43436;BME280;36399;51.444;-2.018;2023-11-19T03:15:48;99916.22;;;10.22;100.00
43436;BME280;36399;51.444;-2.018;2023-11-19T03:18:14;99903.09;;;10.22;100.00
43436;BME280;36399;51.444;-2.018;2023-11-19T03:20:40;99904.84;;;10.23;100.00
43436;BME280;36399;51.444;-2.018;2023-11-19T03:23:06;99899.56;;;10.18;100.00
43436;BME280;36399;51.444;-2.018;2023-11-19T03:25:32;99889.94;;;10.17;100.00
43436;BME280;36399;51.444;-2.018;2023-11-19T03:28:02;99881.13;;;10.04;100.00
43436;BME280;36399;51.444;-2.018;2023-11-19T03:30:30;99888.09;;;10.01;100.00
43436;BME280;36399;51.444;-2.018;2023-11-19T03:32:56;99884.59;;;10.00;100.00
43436;BME280;36399;51.444;-2.018;2023-11-19T03:35:23;99900.38;;;10.06;100.00
43436;BME280;36399;51.444;-2.018;2023-11-19T03:37:50;99904.75;;;10.10;100.00
43436;BME280;36399;51.444;-2.018;2023-11-19T03:40:17;99898.66;;;10.13;100.00
43436;BME280;36399;51.444;-2.018;2023-11-19T03:42:48;99893.44;;;10.19;100.00
43436;BME280;36399;51.444;-2.018;2023-11-19T03:45:13;99884.75;;;10.22;100.00
43436;BME280;36399;51.444;-2.018;2023-11-19T03:47:41;99896.09;;;10.21;100.00
43436;BME280;36399;51.444;-2.018;2023-11-19T03:50:07;99887.38;;;10.22;100.00
43436;BME280;36399;51.444;-2.018;2023-11-19T03:52:35;99886.47;;;10.21;100.00
43436;BME280;36399;51.444;-2.018;2023-11-19T03:55:01;99887.31;;;10.19;100.00
43436;BME280;36399;51.444;-2.018;2023-11-19T03:57:28;99883.78;;;10.13;100.00
43436;BME280;36399;51.444;-2.018;2023-11-19T03:59:54;99889.91;;;10.14;100.00
43436;BME280;36399;51.444;-2.018;2023-11-19T04:02:21;99903.00;;;10.08;100.00
43436;BME280;36399;51.444;-2.018;2023-11-19T04:04:47;99892.50;;;10.06;100.00
43436;BME280;36399;51.444;-2.018;2023-11-19T04:07:13;99890.72;;;10.02;100.00
43436;BME280;36399;51.444;-2.018;2023-11-19T04:09:39;99887.22;;;10.00;100.00
43436;BME280;36399;51.444;-2.018;2023-11-19T04:12:06;99895.97;;;9.99;100.00
43436;BME280;36399;51.444;-2.018;2023-11-19T04:14:32;99890.72;;;10.02;100.00
43436;BME280;36399;51.444;-2.018;2023-11-19T04:16:58;99883.75;;;10.07;100.00
43436;BME280;36399;51.444;-2.018;2023-11-19T04:19:24;99888.19;;;10.19;100.00
43436;BME280;36399;51.444;-2.018;2023-11-19T04:21:50;99903.06;;;10.19;100.00
43436;BME280;36399;51.444;-2.018;2023-11-19T04:24:17;99910.00;;;10.10;100.00
43436;BME280;36399;51.444;-2.018;2023-11-19T04:26:45;99930.06;;;10.02;100.00
43436;BME280;36399;51.444;-2.018;2023-11-19T04:29:16;99955.38;;;9.97;100.00
43436;BME280;36399;51.444;-2.018;2023-11-19T04:31:45;99963.22;;;9.93;100.00
43436;BME280;36399;51.444;-2.018;2023-11-19T04:34:12;99971.00;;;9.88;100.00
43436;BME280;36399;51.444;-2.018;2023-11-19T04:36:38;99959.63;;;9.85;100.00
43436;BME280;36399;51.444;-2.018;2023-11-19T04:39:04;99978.81;;;9.79;100.00
43436;BME280;36399;51.444;-2.018;2023-11-19T04:41:48;99979.63;;;9.70;100.00
43436;BME280;36399;51.444;-2.018;2023-11-19T04:44:15;99971.66;;;9.60;100.00
43436;BME280;36399;51.444;-2.018;2023-11-19T04:46:42;99982.13;;;9.57;100.00
43436;BME280;36399;51.444;-2.018;2023-11-19T04:49:10;99986.47;;;9.55;100.00
43436;BME280;36399;51.444;-2.018;2023-11-19T04:51:44;99970.72;;;9.52;100.00
43436;BME280;36399;51.444;-2.018;2023-11-19T04:54:11;99987.31;;;9.52;100.00
43436;BME280;36399;51.444;-2.018;2023-11-19T04:56:37;99989.97;;;9.57;100.00
43436;BME280;36399;51.444;-2.018;2023-11-19T04:59:03;99974.25;;;9.57;100.00
43436;BME280;36399;51.444;-2.018;2023-11-19T05:01:34;99978.66;;;9.59;100.00
43436;BME280;36399;51.444;-2.018;2023-11-19T05:04:00;99981.28;;;9.61;100.00
43436;BME280;36399;51.444;-2.018;2023-11-19T05:06:31;99983.94;;;9.64;100.00
43436;BME280;36399;51.444;-2.018;2023-11-19T05:08:59;99980.44;;;9.65;100.00
43436;BME280;36399;51.444;-2.018;2023-11-19T05:11:27;99981.34;;;9.67;100.00
43436;BME280;36399;51.444;-2.018;2023-11-19T05:13:54;99990.06;;;9.66;100.00
43436;BME280;36399;51.444;-2.018;2023-11-19T05:16:20;99990.91;;;9.62;100.00
43436;BME280;36399;51.444;-2.018;2023-11-19T05:18:46;99984.78;;;9.63;100.00
43436;BME280;36399;51.444;-2.018;2023-11-19T05:21:12;99979.44;;;9.51;100.00
43436;BME280;36399;51.444;-2.018;2023-11-19T05:23:39;99979.38;;;9.41;100.00
43436;BME280;36399;51.444;-2.018;2023-11-19T05:26:05;99982.69;;;9.28;100.00
43436;BME280;36399;51.444;-2.018;2023-11-19T05:28:31;99982.72;;;9.30;100.00
43436;BME280;36399;51.444;-2.018;2023-11-19T05:30:58;99987.84;;;9.21;100.00
43436;BME280;36399;51.444;-2.018;2023-11-19T05:33:23;99983.56;;;9.29;100.00
43436;BME280;36399;51.444;-2.018;2023-11-19T05:35:49;99987.84;;;9.19;100.00
43436;BME280;36399;51.444;-2.018;2023-11-19T05:38:15;99980.84;;;9.18;100.00
43436;BME280;36399;51.444;-2.018;2023-11-19T05:40:41;99973.91;;;9.23;100.00
43436;BME280;36399;51.444;-2.018;2023-11-19T05:43:07;99968.72;;;9.26;100.00
43436;BME280;36399;51.444;-2.018;2023-11-19T05:45:33;99967.16;;;9.43;100.00
43436;BME280;36399;51.444;-2.018;2023-11-19T05:47:59;99970.66;;;9.45;100.00
43436;BME280;36399;51.444;-2.018;2023-11-19T05:50:25;99968.13;;;9.53;100.00
43436;BME280;36399;51.444;-2.018;2023-11-19T05:52:51;99968.06;;;9.45;100.00
43436;BME280;36399;51.444;-2.018;2023-11-19T05:55:18;99958.50;;;9.54;100.00
43436;BME280;36399;51.444;-2.018;2023-11-19T05:57:45;99962.06;;;9.59;100.00
43436;BME280;36399;51.444;-2.018;2023-11-19T06:00:11;99965.56;;;9.61;100.00
43436;BME280;36399;51.444;-2.018;2023-11-19T06:02:38;99961.16;;;9.57;100.00
43436;BME280;36399;51.444;-2.018;2023-11-19T06:05:05;99961.06;;;9.47;100.00
43436;BME280;36399;51.444;-2.018;2023-11-19T06:07:32;99956.75;;;9.53;100.00
43436;BME280;36399;51.444;-2.018;2023-11-19T06:09:59;99948.91;;;9.56;100.00
43436;BME280;36399;51.444;-2.018;2023-11-19T06:12:25;99949.75;;;9.52;100.00
43436;BME280;36399;51.444;-2.018;2023-11-19T06:14:53;99950.72;;;9.63;100.00
43436;BME280;36399;51.444;-2.018;2023-11-19T06:17:19;99949.00;;;9.68;100.00
43436;BME280;36399;51.444;-2.018;2023-11-19T06:19:45;99962.13;;;9.68;100.00
43436;BME280;36399;51.444;-2.018;2023-11-19T06:22:10;99959.59;;;9.78;100.00
43436;BME280;36399;51.444;-2.018;2023-11-19T06:24:36;99957.03;;;9.86;100.00
43436;BME280;36399;51.444;-2.018;2023-11-19T06:27:03;99954.53;;;10.00;100.00
43436;BME280;36399;51.444;-2.018;2023-11-19T06:29:30;99954.56;;;10.09;100.00
43436;BME280;36399;51.444;-2.018;2023-11-19T06:31:56;99948.50;;;10.15;100.00
43436;BME280;36399;51.444;-2.018;2023-11-19T06:34:22;99935.50;;;10.28;100.00
43436;BME280;36399;51.444;-2.018;2023-11-19T06:36:48;99922.38;;;10.28;100.00
43436;BME280;36399;51.444;-2.018;2023-11-19T06:39:14;99917.16;;;10.36;100.00
43436;BME280;36399;51.444;-2.018;2023-11-19T06:41:46;99906.72;;;10.42;100.00
43436;BME280;36399;51.444;-2.018;2023-11-19T06:44:13;99898.88;;;10.47;100.00
43436;BME280;36399;51.444;-2.018;2023-11-19T06:46:39;99898.00;;;10.54;100.00
43436;BME280;36399;51.444;-2.018;2023-11-19T06:49:05;99894.53;;;10.59;100.00
43436;BME280;36399;51.444;-2.018;2023-11-19T06:51:33;99892.78;;;10.60;100.00
43436;BME280;36399;51.444;-2.018;2023-11-19T06:53:59;99894.53;;;10.59;100.00
43436;BME280;36399;51.444;-2.018;2023-11-19T06:56:25;99889.31;;;10.64;100.00
43436;BME280;36399;51.444;-2.018;2023-11-19T06:58:51;99912.06;;;10.66;100.00
43436;BME280;36399;51.444;-2.018;2023-11-19T07:01:17;99906.81;;;10.69;100.00
43436;BME280;36399;51.444;-2.018;2023-11-19T07:03:45;99894.56;;;10.71;100.00
43436;BME280;36399;51.444;-2.018;2023-11-19T07:06:11;99898.94;;;10.66;100.00
43436;BME280;36399;51.444;-2.018;2023-11-19T07:08:39;99899.81;;;10.71;100.00
43436;BME280;36399;51.444;-2.018;2023-11-19T07:11:06;99912.06;;;10.66;100.00
43436;BME280;36399;51.444;-2.018;2023-11-19T07:13:35;99912.06;;;10.66;100.00
43436;BME280;36399;51.444;-2.018;2023-11-19T07:16:01;99905.03;;;10.59;100.00
43436;BME280;36399;51.444;-2.018;2023-11-19T07:18:27;99913.78;;;10.58;100.00
43436;BME280;36399;51.444;-2.018;2023-11-19T07:20:53;99921.66;;;10.57;100.00
43436;BME280;36399;51.444;-2.018;2023-11-19T07:23:20;99939.16;;;10.56;100.00
43436;BME280;36399;51.444;-2.018;2023-11-19T07:25:47;99928.63;;;10.52;100.00
43436;BME280;36399;51.444;-2.018;2023-11-19T07:28:13;99927.75;;;10.48;100.00
43436;BME280;36399;51.444;-2.018;2023-11-19T07:30:40;99932.09;;;10.45;100.00
43436;BME280;36399;51.444;-2.018;2023-11-19T07:33:06;99921.59;;;10.46;100.00
43436;BME280;36399;51.444;-2.018;2023-11-19T07:35:32;99920.72;;;10.44;100.00
43436;BME280;36399;51.444;-2.018;2023-11-19T07:37:58;99927.66;;;10.34;100.00
43436;BME280;36399;51.444;-2.018;2023-11-19T07:40:24;99930.25;;;10.30;100.00
43436;BME280;36399;51.444;-2.018;2023-11-19T07:42:50;99945.09;;;10.28;100.00
43436;BME280;36399;51.444;-2.018;2023-11-19T07:45:17;99952.09;;;10.29;100.00
43436;BME280;36399;51.444;-2.018;2023-11-19T07:47:44;99964.31;;;10.21;100.00
43436;BME280;36399;51.444;-2.018;2023-11-19T07:50:13;99972.06;;;10.07;100.00
43436;BME280;36399;51.444;-2.018;2023-11-19T07:52:42;99996.44;;;9.94;100.00
43436;BME280;36399;51.444;-2.018;2023-11-19T07:55:08;100008.56;;;9.84;100.00
43436;BME280;36399;51.444;-2.018;2023-11-19T07:57:34;100007.63;;;9.76;100.00
43436;BME280;36399;51.444;-2.018;2023-11-19T08:00:00;100021.56;;;9.70;100.00
43436;BME280;36399;51.444;-2.018;2023-11-19T08:02:27;100023.31;;;9.73;100.00
43436;BME280;36399;51.444;-2.018;2023-11-19T08:04:53;100030.28;;;9.69;100.00
43436;BME280;36399;51.444;-2.018;2023-11-19T08:07:21;100022.38;;;9.65;100.00
43436;BME280;36399;51.444;-2.018;2023-11-19T08:09:48;100025.91;;;9.70;100.00
43436;BME280;36399;51.444;-2.018;2023-11-19T08:12:14;100036.38;;;9.67;100.00
43436;BME280;36399;51.444;-2.018;2023-11-19T08:14:41;100028.50;;;9.67;100.00
43436;BME280;36399;51.444;-2.018;2023-11-19T08:17:07;100026.72;;;9.63;100.00
43436;BME280;36399;51.444;-2.018;2023-11-19T08:19:33;100017.16;;;9.66;100.00
43436;BME280;36399;51.444;-2.018;2023-11-19T08:21:59;100014.56;;;9.71;100.00
43436;BME280;36399;51.444;-2.018;2023-11-19T08:24:25;100008.44;;;9.69;100.00
43436;BME280;36399;51.444;-2.018;2023-11-19T08:26:51;100010.16;;;9.67;100.00
43436;BME280;36399;51.444;-2.018;2023-11-19T08:29:17;100002.31;;;9.67;100.00
43436;BME280;36399;51.444;-2.018;2023-11-19T08:31:43;99988.34;;;9.68;100.00
43436;BME280;36399;51.444;-2.018;2023-11-19T08:34:09;99983.13;;;9.71;100.00
43436;BME280;36399;51.444;-2.018;2023-11-19T08:36:35;99980.56;;;9.78;100.00
43436;BME280;36399;51.444;-2.018;2023-11-19T08:39:01;99959.69;;;9.89;100.00
43436;BME280;36399;51.444;-2.018;2023-11-19T08:41:27;99968.50;;;9.97;100.00
43436;BME280;36399;51.444;-2.018;2023-11-19T08:43:53;99949.28;;;10.03;100.00
43436;BME280;36399;51.444;-2.018;2023-11-19T08:46:19;99959.00;;;10.18;100.00
43436;BME280;36399;51.444;-2.018;2023-11-19T08:48:45;99954.78;;;10.39;100.00
43436;BME280;36399;51.444;-2.018;2023-11-19T08:51:12;99968.88;;;10.52;100.00
43436;BME280;36399;51.444;-2.018;2023-11-19T08:53:38;99945.28;;;10.60;100.00
43436;BME280;36399;51.444;-2.018;2023-11-19T08:56:04;99941.78;;;10.62;100.00
43436;BME280;36399;51.444;-2.018;2023-11-19T08:58:31;99933.06;;;10.69;100.00
43436;BME280;36399;51.444;-2.018;2023-11-19T09:00:57;99939.19;;;10.68;100.00
43436;BME280;36399;51.444;-2.018;2023-11-19T09:03:23;99940.06;;;10.66;100.00
43436;BME280;36399;51.444;-2.018;2023-11-19T09:05:52;99933.91;;;10.62;100.00
43436;BME280;36399;51.444;-2.018;2023-11-19T09:08:18;99933.03;;;10.63;100.00
43436;BME280;36399;51.444;-2.018;2023-11-19T09:10:44;99940.94;;;10.68;100.00
43436;BME280;36399;51.444;-2.018;2023-11-19T09:13:10;99924.31;;;10.64;100.00
43436;BME280;36399;51.444;-2.018;2023-11-19T09:15:36;99930.38;;;10.54;100.00
43436;BME280;36399;51.444;-2.018;2023-11-19T09:18:02;99918.03;;;10.38;100.00
43436;BME280;36399;51.444;-2.018;2023-11-19T09:20:27;99935.50;;;10.33;100.00
43436;BME280;36399;51.444;-2.018;2023-11-19T09:22:54;99933.75;;;10.32;100.00
43436;BME280;36399;51.444;-2.018;2023-11-19T09:25:21;99943.41;;;10.36;100.00
43436;BME280;36399;51.444;-2.018;2023-11-19T09:27:47;99937.28;;;10.38;100.00
43436;BME280;36399;51.444;-2.018;2023-11-19T09:30:13;99926.84;;;10.46;100.00
43436;BME280;36399;51.444;-2.018;2023-11-19T09:32:39;99929.50;;;10.54;100.00
43436;BME280;36399;51.444;-2.018;2023-11-19T09:35:06;99924.31;;;10.64;100.00
43436;BME280;36399;51.444;-2.018;2023-11-19T09:37:32;99915.56;;;10.71;100.00
43436;BME280;36399;51.444;-2.018;2023-11-19T09:39:58;99913.84;;;10.83;100.00
43436;BME280;36399;51.444;-2.018;2023-11-19T09:42:24;99917.41;;;10.94;100.00
43436;BME280;36399;51.444;-2.018;2023-11-19T09:44:50;99892.03;;;11.00;100.00
43436;BME280;36399;51.444;-2.018;2023-11-19T09:47:17;99883.28;;;11.03;100.00
43436;BME280;36399;51.444;-2.018;2023-11-19T09:49:48;99878.06;;;11.17;100.00
43436;BME280;36399;51.444;-2.018;2023-11-19T09:52:15;99871.91;;;11.25;100.00
43436;BME280;36399;51.444;-2.018;2023-11-19T09:54:41;99871.03;;;11.34;100.00
43436;BME280;36399;51.444;-2.018;2023-11-19T09:57:08;99880.69;;;11.39;100.00
43436;BME280;36399;51.444;-2.018;2023-11-19T09:59:37;99857.03;;;11.43;100.00
43436;BME280;36399;51.444;-2.018;2023-11-19T10:02:04;99869.31;;;11.51;100.00
43436;BME280;36399;51.444;-2.018;2023-11-19T10:04:32;99865.81;;;11.60;100.00
43436;BME280;36399;51.444;-2.018;2023-11-19T10:07:02;99870.19;;;11.58;100.00
43436;BME280;36399;51.444;-2.018;2023-11-19T10:09:28;99851.78;;;11.53;100.00
43436;BME280;36399;51.444;-2.018;2023-11-19T10:11:54;99867.56;;;11.52;100.00
43436;BME280;36399;51.444;-2.018;2023-11-19T10:14:23;99872.81;;;11.53;100.00
43436;BME280;36399;51.444;-2.018;2023-11-19T10:16:49;99863.19;;;11.54;100.00
43436;BME280;36399;51.444;-2.018;2023-11-19T10:19:19;99881.59;;;11.52;100.00
43436;BME280;36399;51.444;-2.018;2023-11-19T10:21:46;99879.81;;;11.57;100.00
43436;BME280;36399;51.444;-2.018;2023-11-19T10:24:12;99880.69;;;11.59;100.00
43436;BME280;36399;51.444;-2.018;2023-11-19T10:26:40;99878.94;;;11.57;100.00
43436;BME280;36399;51.444;-2.018;2023-11-19T10:29:06;99879.81;;;11.68;100.00
43436;BME280;36399;51.444;-2.018;2023-11-19T10:31:32;99875.44;;;11.70;100.00
43436;BME280;36399;51.444;-2.018;2023-11-19T10:33:58;99899.09;;;11.72;100.00
43436;BME280;36399;51.444;-2.018;2023-11-19T10:36:37;99874.56;;;11.79;100.00
43436;BME280;36399;51.444;-2.018;2023-11-19T10:39:05;99868.44;;;11.81;100.00
43436;BME280;36399;51.444;-2.018;2023-11-19T10:41:32;99864.91;;;11.82;100.00
43436;BME280;36399;51.444;-2.018;2023-11-19T10:43:58;99872.81;;;11.84;100.00
43436;BME280;36399;51.444;-2.018;2023-11-19T10:46:41;99857.91;;;11.84;100.00
43436;BME280;36399;51.444;-2.018;2023-11-19T10:49:09;99871.03;;;11.92;100.00
43436;BME280;36399;51.444;-2.018;2023-11-19T10:51:36;99871.91;;;11.89;100.00
43436;BME280;36399;51.444;-2.018;2023-11-19T10:54:05;99880.69;;;11.88;100.00
43436;BME280;36399;51.444;-2.018;2023-11-19T10:56:33;99880.66;;;11.91;100.00
43436;BME280;36399;51.444;-2.018;2023-11-19T10:59:00;99875.44;;;11.85;100.00
43436;BME280;36399;51.444;-2.018;2023-11-19T11:01:42;99878.94;;;11.78;100.00
43436;BME280;36399;51.444;-2.018;2023-11-19T11:04:24;99873.66;;;11.74;100.00
43436;BME280;36399;51.444;-2.018;2023-11-19T11:06:54;99874.56;;;11.79;100.00
43436;BME280;36399;51.444;-2.018;2023-11-19T11:09:22;99877.19;;;11.80;100.00
43436;BME280;36399;51.444;-2.018;2023-11-19T11:11:50;99889.47;;;11.81;100.00
43436;BME280;36399;51.444;-2.018;2023-11-19T11:14:20;99892.94;;;11.73;100.00
43436;BME280;36399;51.444;-2.018;2023-11-19T11:16:49;99890.34;;;11.80;100.00
43436;BME280;36399;51.444;-2.018;2023-11-19T11:19:16;99891.22;;;11.87;100.00
43436;BME280;36399;51.444;-2.018;2023-11-19T11:21:49;99894.72;;;11.87;100.00
43436;BME280;36399;51.444;-2.018;2023-11-19T11:30:20;99887.69;;;11.74;100.00
43436;BME280;36399;51.444;-2.018;2023-11-19T11:38:14;99857.03;;;11.81;100.00
43436;BME280;36399;51.444;-2.018;2023-11-19T11:40:41;99858.78;;;11.82;100.00
43436;BME280;36399;51.444;-2.018;2023-11-19T11:43:44;99865.78;;;11.90;100.00
43436;BME280;36399;51.444;-2.018;2023-11-19T11:49:03;99865.78;;;11.83;100.00
43436;BME280;36399;51.444;-2.018;2023-11-19T11:57:11;99884.22;;;11.54;100.00
43436;BME280;36399;51.444;-2.018;2023-11-19T11:59:43;99884.22;;;11.54;100.00
43436;BME280;36399;51.444;-2.018;2023-11-19T12:02:12;99884.22;;;11.58;100.00
43436;BME280;36399;51.444;-2.018;2023-11-19T12:04:40;99892.97;;;11.68;100.00
43436;BME280;36399;51.444;-2.018;2023-11-19T12:07:18;99879.81;;;11.65;100.00
43436;BME280;36399;51.444;-2.018;2023-11-19T12:10:08;99871.94;;;11.63;100.00
43436;BME280;36399;51.444;-2.018;2023-11-19T12:12:38;99889.47;;;11.63;100.00
43436;BME280;36399;51.444;-2.018;2023-11-19T12:15:08;99893.84;;;11.62;100.00
43436;BME280;36399;51.444;-2.018;2023-11-19T12:17:47;99885.94;;;11.65;100.00
43436;BME280;36399;51.444;-2.018;2023-11-19T12:20:24;99892.94;;;11.71;100.00
43436;BME280;36399;51.444;-2.018;2023-11-19T12:22:51;99889.47;;;11.84;100.00
43436;BME280;36399;51.444;-2.018;2023-11-19T12:25:18;99877.16;;;11.74;100.00
43436;BME280;36399;51.444;-2.018;2023-11-19T12:27:50;99871.06;;;11.57;100.00
43436;BME280;36399;51.444;-2.018;2023-11-19T12:30:21;99897.34;;;11.51;100.00
43436;BME280;36399;51.444;-2.018;2023-11-19T12:32:50;99903.50;;;11.48;100.00
43436;BME280;36399;51.444;-2.018;2023-11-19T12:35:20;99915.72;;;11.42;100.00
43436;BME280;36399;51.444;-2.018;2023-11-19T12:37:50;99919.25;;;11.47;100.00
43436;BME280;36399;51.444;-2.018;2023-11-19T12:40:20;99927.97;;;11.43;100.00
43436;BME280;36399;51.444;-2.018;2023-11-19T12:42:48;99928.84;;;11.38;100.00
43436;BME280;36399;51.444;-2.018;2023-11-19T12:45:16;99927.09;;;11.39;100.00
43436;BME280;36399;51.444;-2.018;2023-11-19T12:47:44;99923.59;;;11.35;100.00
43436;BME280;36399;51.444;-2.018;2023-11-19T12:50:11;99922.72;;;11.32;100.00
43436;BME280;36399;51.444;-2.018;2023-11-19T12:52:39;99922.72;;;11.30;100.00
43436;BME280;36399;51.444;-2.018;2023-11-19T12:55:25;99927.09;;;11.28;100.00
43436;BME280;36399;51.444;-2.018;2023-11-19T12:57:53;99904.31;;;11.21;100.00
43436;BME280;36399;51.444;-2.018;2023-11-19T13:00:23;99956.00;;;11.19;100.00
43436;BME280;36399;51.444;-2.018;2023-11-19T13:02:55;99937.59;;;11.21;100.00
43436;BME280;36399;51.444;-2.018;2023-11-19T13:08:09;99954.25;;;11.18;100.00